Time;durP1;ratioP1;P1;durP2;ratioP2;P2;SDS_P1;SDS_P2;PMS_P1;PMS_P2;Temp;Humidity;BMP_temperature;BMP_pressure;BME280_temperature;BME280_humidity;BME280_pressure;Samples;Min_cycle;Max_cycle;Signal;HPM_P1;HPM_P2
2021/08/25 00:00:46;;;;;;;6.13;4.40;;;;;;;13.15;100.00;95216.88;5032030;28;20393;-58
2021/08/25 00:03:12;;;;;;;5.55;4.40;;;;;;;13.13;100.00;95228.97;5042752;28;20032;-59
2021/08/25 00:05:43;;;;;;;6.47;5.00;;;;;;;13.12;100.00;95233.53;5033122;28;20026;-56
2021/08/25 00:08:08;;;;;;;6.00;4.50;;;;;;;13.12;100.00;95233.53;5015762;28;20377;-58
2021/08/25 00:10:39;;;;;;;4.90;4.32;;;;;;;13.13;100.00;95232.44;5033194;28;20029;-57
2021/08/25 00:13:14;;;;;;;5.78;4.85;;;;;;;13.16;100.00;95229.22;5033035;28;20029;-56
2021/08/25 00:15:45;;;;;;;4.95;4.20;;;;;;;13.14;100.00;95228.72;5031761;28;20029;-58
2021/08/25 00:18:14;;;;;;;5.47;4.33;;;;;;;13.14;100.00;95230.59;5031715;28;20401;-57
2021/08/25 00:20:45;;;;;;;5.82;4.30;;;;;;;13.14;100.00;95222.53;5031893;28;20097;-58
2021/08/25 00:23:20;;;;;;;5.80;4.40;;;;;;;13.13;100.00;95219.00;5031907;28;20488;-58
2021/08/25 00:25:46;;;;;;;5.47;4.30;;;;;;;13.15;100.00;95219.56;5031785;28;20396;-58
2021/08/25 00:28:14;;;;;;;4.63;4.10;;;;;;;13.14;100.00;95212.56;5032665;28;20029;-59
2021/08/25 00:30:42;;;;;;;4.88;3.90;;;;;;;13.14;100.00;95206.38;5044778;28;20021;-58
2021/08/25 00:33:14;;;;;;;4.20;3.80;;;;;;;13.16;100.00;95207.72;5033325;28;20059;-59
2021/08/25 00:35:45;;;;;;;5.03;4.33;;;;;;;13.18;100.00;95204.75;5032741;28;20051;-58
2021/08/25 00:38:11;;;;;;;5.75;3.97;;;;;;;13.17;100.00;95203.13;5043250;28;20021;-58
2021/08/25 00:40:48;;;;;;;5.80;3.92;;;;;;;13.17;100.00;95208.50;5032401;28;20499;-59
2021/08/25 00:43:16;;;;;;;5.43;4.43;;;;;;;13.16;100.00;95210.41;5031288;28;20030;-59
2021/08/25 00:45:45;;;;;;;6.35;3.53;;;;;;;13.12;100.00;95217.41;5032473;28;20026;-59
2021/08/25 00:48:14;;;;;;;4.13;3.50;;;;;;;13.13;100.00;95212.81;5031305;28;20052;-57
2021/08/25 00:50:49;;;;;;;4.70;3.67;;;;;;;13.10;100.00;95210.69;5032470;28;20025;-59
2021/08/25 00:53:19;;;;;;;5.38;3.78;;;;;;;13.10;100.00;95208.81;5031799;28;20056;-58
2021/08/25 00:55:44;;;;;;;5.00;3.78;;;;;;;13.07;100.00;95215.56;5032389;28;20480;-58
2021/08/25 00:58:10;;;;;;;3.70;3.35;;;;;;;13.08;100.00;95208.28;5014759;28;20032;-59
2021/08/25 01:01:02;;;;;;;3.70;3.05;;;;;;;13.10;100.00;95199.94;5032362;28;20109;-61
2021/08/25 01:03:46;;;;;;;6.63;3.25;;;;;;;13.11;100.00;95199.66;5033611;28;20025;-60
2021/08/25 01:06:19;;;;;;;3.80;3.45;;;;;;;13.11;100.00;95190.78;5052155;28;20553;-61
2021/08/25 01:08:55;;;;;;;3.33;2.97;;;;;;;13.09;100.00;95180.31;5033905;28;20503;-61
2021/08/25 01:11:24;;;;;;;4.40;3.42;;;;;;;13.09;100.00;95177.63;5030300;28;20018;-61
2021/08/25 01:13:52;;;;;;;3.90;3.20;;;;;;;13.08;100.00;95178.72;5032066;28;20017;-61
2021/08/25 01:16:18;;;;;;;5.35;3.20;;;;;;;13.06;100.00;95180.88;5032061;28;20036;-60
2021/08/25 01:18:45;;;;;;;4.03;3.30;;;;;;;13.04;100.00;95183.84;5030882;28;20026;-60
2021/08/25 01:21:18;;;;;;;3.83;3.38;;;;;;;13.03;100.00;95174.19;5030752;28;20485;-58
2021/08/25 01:23:56;;;;;;;4.20;3.58;;;;;;;13.02;100.00;95174.44;5032123;28;20129;-57
2021/08/25 01:26:39;;;;;;;5.40;3.80;;;;;;;12.99;100.00;95170.41;5030817;28;20025;-60
2021/08/25 01:29:10;;;;;;;5.25;3.60;;;;;;;12.97;100.00;95169.91;5032000;28;20031;-58
2021/08/25 01:31:36;;;;;;;4.18;3.53;;;;;;;12.97;100.00;95169.09;5041341;28;20028;-60
2021/08/25 01:34:07;;;;;;;4.95;3.33;;;;;;;12.95;100.00;95182.81;5051772;28;20032;-59
2021/08/25 01:36:36;;;;;;;4.53;4.03;;;;;;;12.95;100.00;95173.94;5050652;28;20020;-59
2021/08/25 01:39:02;;;;;;;4.25;3.45;;;;;;;12.94;100.00;95170.47;5034733;28;20024;-56
2021/08/25 01:41:30;;;;;;;5.72;4.07;;;;;;;12.92;100.00;95179.88;5031691;28;20057;-57
2021/08/25 01:43:57;;;;;;;5.05;4.32;;;;;;;12.90;100.00;95173.97;5031768;28;20030;-55
2021/08/25 01:46:32;;;;;;;4.90;4.13;;;;;;;12.89;100.00;95183.09;5031853;28;20025;-60
2021/08/25 01:49:14;;;;;;;4.57;4.00;;;;;;;12.89;100.00;95175.03;5030587;28;20025;-60
2021/08/25 01:51:42;;;;;;;4.55;3.80;;;;;;;12.88;100.00;95178.81;5031741;28;20507;-59
2021/08/25 01:54:10;;;;;;;4.68;4.13;;;;;;;12.89;100.00;95180.41;5031412;28;20068;-57
2021/08/25 01:56:42;;;;;;;6.00;4.28;;;;;;;12.84;100.00;95178.56;5030522;28;20036;-60
2021/08/25 01:59:10;;;;;;;5.97;4.57;;;;;;;12.85;100.00;95177.50;5031810;28;20041;-60
2021/08/25 02:01:39;;;;;;;5.35;4.70;;;;;;;12.83;100.00;95185.03;5030367;28;20039;-61
2021/08/25 02:04:06;;;;;;;6.43;4.70;;;;;;;12.84;100.00;95194.69;5030372;28;20025;-60
2021/08/25 02:06:35;;;;;;;5.55;4.82;;;;;;;12.82;100.00;95191.50;5031548;28;20053;-61
2021/08/25 02:09:00;;;;;;;5.15;4.57;;;;;;;12.82;100.00;95201.44;5032008;28;20435;-60
2021/08/25 02:11:26;;;;;;;6.15;4.97;;;;;;;12.81;100.00;95199.81;5031565;28;20017;-61
2021/08/25 02:13:57;;;;;;;5.45;4.57;;;;;;;12.78;100.00;95207.34;5030571;28;20477;-60
2021/08/25 02:16:31;;;;;;;6.03;4.78;;;;;;;12.77;100.00;95218.38;5030413;28;20022;-61
2021/08/25 02:19:01;;;;;;;7.55;5.53;;;;;;;12.77;100.00;95216.50;5031743;28;20357;-60
2021/08/25 02:21:42;;;;;;;5.20;4.55;;;;;;;12.77;100.00;95221.88;5031827;28;20021;-61
2021/08/25 02:24:16;;;;;;;6.60;4.95;;;;;;;12.75;100.00;95228.59;5035088;28;20032;-60
2021/08/25 02:26:45;;;;;;;6.07;4.90;;;;;;;12.74;100.00;95221.63;5035197;28;20514;-61
2021/08/25 02:29:13;;;;;;;5.90;4.82;;;;;;;12.73;100.00;95222.69;5033761;28;20033;-61
2021/08/25 02:31:42;;;;;;;5.50;4.90;;;;;;;12.72;100.00;95229.97;5044804;28;20044;-60
2021/08/25 02:34:07;;;;;;;7.38;4.88;;;;;;;12.71;100.00;95227.56;5037820;28;20025;-57
2021/08/25 02:36:33;;;;;;;8.50;5.00;;;;;;;12.70;100.00;95242.06;5039381;28;20036;-59
2021/08/25 02:39:04;;;;;;;5.80;4.95;;;;;;;12.70;100.00;95239.38;5037903;28;20021;-60
2021/08/25 02:41:36;;;;;;;6.20;4.60;;;;;;;12.69;100.00;95241.25;5034808;28;20107;-55
2021/08/25 02:44:01;;;;;;;6.35;5.25;;;;;;;12.69;100.00;95240.44;5034649;28;20352;-59
2021/08/25 02:46:34;;;;;;;6.70;5.13;;;;;;;12.67;100.00;95243.41;5034727;28;20021;-60
2021/08/25 02:49:00;;;;;;;6.18;5.32;;;;;;;12.67;100.00;95246.09;5033504;28;20492;-60
2021/08/25 02:51:35;;;;;;;6.50;5.43;;;;;;;12.65;100.00;95250.13;5034593;28;20032;-57
2021/08/25 02:54:00;;;;;;;8.18;4.95;;;;;;;12.67;100.00;95242.59;5041919;28;20045;-59
2021/08/25 02:56:26;;;;;;;6.78;5.45;;;;;;;12.67;100.00;95247.97;5054276;28;20036;-60
2021/08/25 02:58:54;;;;;;;6.88;5.22;;;;;;;12.65;100.00;95250.13;5053601;28;20021;-59
2021/08/25 03:01:22;;;;;;;7.20;5.55;;;;;;;12.65;100.00;95236.69;5052895;28;20503;-57
2021/08/25 03:03:53;;;;;;;5.85;5.20;;;;;;;12.64;100.00;95241.25;5054346;28;20509;-58
2021/08/25 03:06:23;;;;;;;6.90;5.07;;;;;;;12.64;100.00;95243.16;5053108;28;20021;-56
2021/08/25 03:08:49;;;;;;;7.50;5.07;;;;;;;12.64;100.00;95243.97;5052938;28;20035;-56
2021/08/25 03:11:14;;;;;;;6.75;5.47;;;;;;;12.63;100.00;95244.22;5052879;28;20029;-58
2021/08/25 03:13:40;;;;;;;6.32;5.10;;;;;;;12.62;100.00;95239.94;5054121;28;20021;-58
2021/08/25 03:16:09;;;;;;;6.40;5.10;;;;;;;12.64;100.00;95232.41;5054177;28;20549;-58
2021/08/25 03:18:37;;;;;;;6.90;5.15;;;;;;;12.63;100.00;95230.78;5036357;28;20029;-57
2021/08/25 03:21:03;;;;;;;7.13;4.97;;;;;;;12.61;100.00;95230.28;5053890;28;20053;-56
2021/08/25 03:23:32;;;;;;;5.78;4.80;;;;;;;12.60;100.00;95236.72;5052553;28;20549;-59
2021/08/25 03:26:00;;;;;;;8.80;5.63;;;;;;;12.61;100.00;95232.97;5053894;28;20025;-59
2021/08/25 03:28:46;;;;;;;8.00;5.45;;;;;;;12.61;100.00;95238.34;5052813;28;20484;-59
2021/08/25 03:31:12;;;;;;;5.78;4.63;;;;;;;12.60;100.00;95225.97;5053941;28;20027;-58
2021/08/25 03:33:40;;;;;;;6.53;5.05;;;;;;;12.59;100.00;95235.94;5039221;28;20025;-59
2021/08/25 03:36:08;;;;;;;5.82;4.88;;;;;;;12.61;100.00;95235.66;5032993;28;20067;-58
2021/08/25 03:38:45;;;;;;;6.88;5.60;;;;;;;12.61;100.00;95236.44;5040843;28;20053;-56
2021/08/25 03:41:22;;;;;;;5.55;4.88;;;;;;;12.60;100.00;95234.84;5041498;28;20029;-56
2021/08/25 03:43:48;;;;;;;5.93;5.00;;;;;;;12.62;100.00;95235.38;5053534;28;20025;-57
2021/08/25 03:46:17;;;;;;;7.32;5.13;;;;;;;12.61;100.00;95232.97;5053553;28;20031;-58
2021/08/25 03:48:42;;;;;;;8.00;4.68;;;;;;;12.60;100.00;95228.66;5053449;28;20025;-59
2021/08/25 03:51:08;;;;;;;6.63;5.18;;;;;;;12.60;100.00;95232.16;5053548;28;20079;-59
2021/08/25 03:53:39;;;;;;;5.97;5.10;;;;;;;12.61;100.00;95233.75;5053120;28;20500;-58
2021/08/25 03:56:05;;;;;;;5.47;4.43;;;;;;;12.61;100.00;95231.06;5053468;28;20036;-57
2021/08/25 03:58:36;;;;;;;5.53;4.88;;;;;;;12.59;100.00;95230.56;5052110;28;20025;-58
2021/08/25 04:01:04;;;;;;;5.15;4.50;;;;;;;12.60;100.00;95229.47;5051238;28;20373;-58
2021/08/25 04:03:43;;;;;;;5.55;4.50;;;;;;;12.58;100.00;95228.91;5053179;28;20087;-58
2021/08/25 04:06:11;;;;;;;5.22;4.72;;;;;;;12.57;100.00;95231.88;5053285;28;20442;-58
2021/08/25 04:09:08;;;;;;;5.78;4.72;;;;;;;12.57;100.00;95221.94;5053284;28;20357;-58
2021/08/25 04:11:36;;;;;;;6.47;4.38;;;;;;;12.57;100.00;95224.63;5053008;28;20051;-59
2021/08/25 04:14:04;;;;;;;6.28;4.72;;;;;;;12.58;100.00;95228.09;5051905;28;20024;-59
2021/08/25 04:16:39;;;;;;;6.53;4.30;;;;;;;12.58;100.00;95234.28;5053084;28;20435;-58
2021/08/25 04:19:04;;;;;;;4.72;4.20;;;;;;;12.59;100.00;95232.41;5053005;28;20032;-58
2021/08/25 04:21:30;;;;;;;7.00;4.28;;;;;;;12.58;100.00;95228.09;5052837;28;20393;-58
2021/08/25 04:23:57;;;;;;;6.63;4.78;;;;;;;12.57;100.00;95232.69;5052596;28;20122;-58
2021/08/25 04:26:23;;;;;;;4.82;4.32;;;;;;;12.59;100.00;95235.94;5052776;28;20032;-58
2021/08/25 04:28:50;;;;;;;4.80;4.18;;;;;;;12.57;100.00;95230.00;5052794;28;20428;-58
2021/08/25 04:31:16;;;;;;;7.05;4.32;;;;;;;12.58;100.00;95234.28;5031579;28;20108;-56
2021/08/25 04:34:02;;;;;;;5.68;4.57;;;;;;;12.58;100.00;95225.41;5032654;28;20029;-56
2021/08/25 04:36:30;;;;;;;5.38;4.25;;;;;;;12.59;100.00;95235.94;5031685;28;20032;-57
2021/08/25 04:38:58;;;;;;;4.28;3.88;;;;;;;12.58;100.00;95234.28;5048075;28;20052;-58
2021/08/25 04:41:26;;;;;;;4.70;3.97;;;;;;;12.58;100.00;95234.28;5032886;28;20026;-58
2021/08/25 04:43:52;;;;;;;4.95;3.97;;;;;;;12.56;100.00;95233.75;5032789;28;20025;-59
2021/08/25 04:46:23;;;;;;;4.10;3.70;;;;;;;12.58;100.00;95234.28;5031605;28;20503;-59
2021/08/25 04:48:51;;;;;;;4.72;4.00;;;;;;;12.58;100.00;95230.78;5032424;28;20400;-59
2021/08/25 04:51:16;;;;;;;4.65;4.15;;;;;;;12.56;100.00;95233.75;5032490;28;20031;-58
2021/08/25 04:53:42;;;;;;;5.65;4.07;;;;;;;12.58;100.00;95236.16;5032274;28;20559;-58
2021/08/25 04:56:13;;;;;;;5.13;3.53;;;;;;;12.56;100.00;95241.00;5031969;28;20034;-52
2021/08/25 04:58:44;;;;;;;5.50;4.10;;;;;;;12.57;100.00;95246.13;5032406;28;20076;-46
2021/08/25 05:01:12;;;;;;;4.68;4.13;;;;;;;12.57;100.00;95234.56;5030943;28;20052;-49
2021/08/25 05:03:40;;;;;;;7.28;3.67;;;;;;;12.57;100.00;95231.88;5032065;28;20025;-52
2021/08/25 05:06:07;;;;;;;5.60;3.88;;;;;;;12.58;100.00;95238.84;5032352;28;20488;-49
2021/08/25 05:08:36;;;;;;;4.78;3.63;;;;;;;12.57;100.00;95242.63;5032300;28;20036;-48
2021/08/25 05:11:02;;;;;;;4.20;3.72;;;;;;;12.60;100.00;95242.09;5032225;28;20028;-53
2021/08/25 05:13:30;;;;;;;4.38;3.95;;;;;;;12.59;100.00;95238.59;5032214;28;20025;-49
2021/08/25 05:15:56;;;;;;;4.30;3.90;;;;;;;12.60;100.00;95236.72;5032008;28;20075;-54
2021/08/25 05:18:22;;;;;;;4.18;3.75;;;;;;;12.59;100.00;95235.94;5037865;28;20060;-51
2021/08/25 05:20:50;;;;;;;4.32;3.92;;;;;;;12.61;100.00;95233.75;5051183;28;20035;-51
2021/08/25 05:23:21;;;;;;;5.25;3.78;;;;;;;12.62;100.00;95234.56;5032029;28;20022;-50
2021/08/25 05:25:52;;;;;;;4.30;3.78;;;;;;;12.62;100.00;95221.94;5033112;28;20476;-48
2021/08/25 05:28:20;;;;;;;4.22;3.80;;;;;;;12.65;100.00;95225.94;5048575;28;20492;-48
2021/08/25 05:30:45;;;;;;;4.47;3.67;;;;;;;12.65;100.00;95218.69;5050433;28;20033;-48
2021/08/25 05:33:13;;;;;;;7.15;3.80;;;;;;;12.67;100.00;95219.22;5042869;28;20056;-47
2021/08/25 05:35:40;;;;;;;3.75;3.28;;;;;;;12.68;100.00;95220.81;5032825;28;20034;-48
2021/08/25 05:38:06;;;;;;;5.22;3.45;;;;;;;12.68;100.00;95211.94;5030784;28;20025;-46
2021/08/25 05:40:34;;;;;;;4.10;3.67;;;;;;;12.68;100.00;95212.75;5032335;28;20025;-50
2021/08/25 05:42:59;;;;;;;4.88;3.53;;;;;;;12.74;100.00;95210.88;5031703;28;20026;-50
2021/08/25 05:45:25;;;;;;;4.25;3.40;;;;;;;12.74;100.00;95206.28;5036065;28;20017;-53
2021/08/25 05:47:52;;;;;;;4.22;3.45;;;;;;;12.73;100.00;95199.31;5051930;28;20388;-47
2021/08/25 05:50:25;;;;;;;4.20;3.58;;;;;;;12.75;100.00;95191.78;5020179;28;20037;-52
2021/08/25 05:52:53;;;;;;;5.25;3.80;;;;;;;12.78;100.00;95201.16;5051034;28;20039;-48
2021/08/25 05:55:19;;;;;;;4.18;3.63;;;;;;;12.80;100.00;95190.94;5050350;28;20071;-50
2021/08/25 05:57:51;;;;;;;4.68;3.60;;;;;;;12.82;100.00;95190.69;5054036;28;20432;-47
2021/08/25 06:00:22;;;;;;;4.38;3.50;;;;;;;12.83;100.00;95193.09;5055555;28;20024;-49
2021/08/25 06:02:54;;;;;;;4.82;3.42;;;;;;;12.84;100.00;95186.63;5044401;28;20115;-52
2021/08/25 06:05:27;;;;;;;6.32;3.30;;;;;;;12.88;100.00;95184.19;5034315;28;20072;-50
2021/08/25 06:07:56;;;;;;;3.40;3.00;;;;;;;12.87;100.00;95183.38;5035507;28;20026;-51
2021/08/25 06:10:21;;;;;;;4.35;3.50;;;;;;;12.86;100.00;95180.97;5034115;28;20022;-49
2021/08/25 06:12:47;;;;;;;3.92;3.22;;;;;;;12.86;100.00;95186.34;5035650;28;20026;-50
2021/08/25 06:15:33;;;;;;;4.15;3.35;;;;;;;12.84;100.00;95183.94;5034237;28;20029;-49
2021/08/25 06:17:58;;;;;;;3.67;3.38;;;;;;;12.87;100.00;95183.38;5034302;28;20083;-52
2021/08/25 06:20:24;;;;;;;3.38;2.90;;;;;;;12.89;100.00;95194.66;5035329;28;20034;-54
2021/08/25 06:22:51;;;;;;;4.57;2.88;;;;;;;12.90;100.00;95190.09;5017383;28;20025;-49
2021/08/25 06:25:26;;;;;;;5.80;3.28;;;;;;;12.89;100.00;95186.59;5034066;28;20053;-48
2021/08/25 06:27:51;;;;;;;3.83;2.97;;;;;;;12.90;100.00;95187.41;5037791;28;20025;-48
2021/08/25 06:30:20;;;;;;;5.60;2.90;;;;;;;12.87;100.00;95190.66;5046251;28;20045;-52
2021/08/25 06:32:48;;;;;;;3.92;3.25;;;;;;;12.92;100.00;95196.81;5034954;28;20033;-47
2021/08/25 06:35:16;;;;;;;3.42;3.10;;;;;;;12.89;100.00;95191.97;5035371;28;20369;-47
2021/08/25 06:38:07;;;;;;;3.45;2.80;;;;;;;12.93;100.00;95193.03;5037546;28;20111;-49
2021/08/25 06:40:36;;;;;;;3.42;2.97;;;;;;;12.95;100.00;95187.38;5034826;28;20033;-47
2021/08/25 06:43:04;;;;;;;2.90;2.60;;;;;;;12.93;100.00;95187.66;5039782;28;20029;-50
2021/08/25 06:45:29;;;;;;;4.28;2.85;;;;;;;12.97;100.00;95186.03;5054319;28;20025;-50
2021/08/25 06:47:55;;;;;;;3.17;2.78;;;;;;;12.95;100.00;95187.38;5054430;28;20024;-49
2021/08/25 06:50:29;;;;;;;3.10;2.70;;;;;;;12.97;100.00;95188.72;5053236;28;20403;-53
2021/08/25 06:52:55;;;;;;;5.35;3.10;;;;;;;12.97;100.00;95187.91;5065409;28;20120;-58
2021/08/25 06:55:28;;;;;;;4.80;2.75;;;;;;;12.97;100.00;95190.59;5053154;28;20491;-59
2021/08/25 06:57:53;;;;;;;3.53;2.80;;;;;;;12.96;100.00;95187.09;5052847;28;20388;-59
2021/08/25 07:00:23;;;;;;;3.67;2.58;;;;;;;13.00;100.00;95190.03;5054187;28;20036;-59
2021/08/25 07:02:48;;;;;;;3.78;3.20;;;;;;;13.01;100.00;95188.94;5045303;28;20037;-57
2021/08/25 07:05:16;;;;;;;3.70;3.03;;;;;;;13.02;100.00;95187.88;5034502;28;20385;-59
2021/08/25 07:07:42;;;;;;;3.47;2.90;;;;;;;13.03;100.00;95179.56;5034116;28;20455;-58
2021/08/25 07:10:13;;;;;;;4.20;3.10;;;;;;;13.04;100.00;95174.97;5032491;28;20021;-58
2021/08/25 07:12:41;;;;;;;3.30;3.00;;;;;;;13.03;100.00;95170.69;5032970;28;20026;-57
2021/08/25 07:15:19;;;;;;;4.63;3.25;;;;;;;13.02;100.00;95166.34;5032874;28;20025;-57
2021/08/25 07:17:49;;;;;;;3.75;3.17;;;;;;;13.05;100.00;95152.38;5033061;28;20037;-58
2021/08/25 07:20:15;;;;;;;6.05;3.78;;;;;;;13.10;100.00;95159.59;5034178;28;20030;-59
2021/08/25 07:22:43;;;;;;;3.70;3.08;;;;;;;13.12;100.00;95152.84;5034159;28;20072;-59
2021/08/25 07:25:09;;;;;;;3.42;3.13;;;;;;;13.18;100.00;95156.34;5033995;28;20047;-57
2021/08/25 07:27:39;;;;;;;5.57;3.38;;;;;;;13.18;100.00;95153.63;5034114;28;20544;-57
2021/08/25 07:30:05;;;;;;;5.30;3.35;;;;;;;13.24;100.00;95158.75;5047456;28;20025;-59
2021/08/25 07:32:36;;;;;;;4.88;3.33;;;;;;;13.28;100.00;95161.66;5034043;28;20022;-58
2021/08/25 07:35:14;;;;;;;6.65;3.58;;;;;;;13.31;100.00;95161.91;5033866;28;20036;-57
2021/08/25 07:37:44;;;;;;;4.00;3.22;;;;;;;13.37;100.00;95161.88;5032593;28;20080;-59
2021/08/25 07:40:10;;;;;;;3.75;2.90;;;;;;;13.36;100.00;95144.94;5053221;28;20028;-59
2021/08/25 07:42:38;;;;;;;6.57;3.28;;;;;;;13.40;100.00;95150.56;5052373;28;20025;-57
2021/08/25 07:45:10;;;;;;;4.53;2.85;;;;;;;13.36;100.00;95152.22;5053623;28;20108;-58
2021/08/25 07:47:39;;;;;;;5.78;3.45;;;;;;;13.40;100.00;95142.47;5052298;28;20021;-58
2021/08/25 07:50:10;;;;;;;3.70;2.75;;;;;;;13.46;100.00;95144.88;5053323;28;20555;-59
2021/08/25 07:52:37;;;;;;;3.40;3.10;;;;;;;13.47;100.00;95149.16;5051291;28;20029;-58
2021/08/25 07:55:21;;;;;;;3.75;3.30;;;;;;;13.53;100.00;95147.22;5051764;28;20045;-55
2021/08/25 07:57:52;;;;;;;6.30;3.35;;;;;;;13.49;100.00;95147.00;5053340;28;20025;-56
2021/08/25 08:00:18;;;;;;;3.28;2.97;;;;;;;13.52;100.00;95143.72;5052976;28;20082;-59
2021/08/25 08:03:02;;;;;;;3.53;3.15;;;;;;;13.52;100.00;95142.94;5051837;28;20033;-59
2021/08/25 08:05:27;;;;;;;4.82;3.08;;;;;;;13.61;100.00;95146.63;5053185;28;20025;-59
2021/08/25 08:07:56;;;;;;;4.03;3.47;;;;;;;13.67;100.00;95137.41;5051858;28;20460;-56
2021/08/25 08:10:24;;;;;;;5.28;3.22;;;;;;;13.71;100.00;95126.91;5053204;28;20025;-58
2021/08/25 08:12:50;;;;;;;3.28;2.92;;;;;;;13.76;100.00;95126.84;5051817;28;20029;-56
2021/08/25 08:15:26;;;;;;;4.20;3.45;;;;;;;13.76;100.00;95127.63;5051609;28;20025;-59
2021/08/25 08:17:52;;;;;;;4.30;3.10;;;;;;;13.82;100.00;95123.03;5052683;28;20020;-58
2021/08/25 08:20:17;;;;;;;3.85;3.22;;;;;;;13.85;100.00;95122.44;5052647;28;20024;-59
2021/08/25 08:22:43;;;;;;;6.13;3.65;;;;;;;13.87;100.00;95121.06;5053033;28;20039;-59
2021/08/25 08:25:09;;;;;;;6.03;3.70;;;;;;;13.83;100.00;95128.13;5051694;28;20106;-59
2021/08/25 08:27:37;;;;;;;7.03;4.13;;;;;;;13.82;100.00;95125.72;5052799;28;20033;-59
2021/08/25 08:30:06;;;;;;;4.75;3.85;;;;;;;13.82;100.00;95125.72;5051308;28;20029;-59
2021/08/25 08:32:38;;;;;;;5.43;3.22;;;;;;;13.86;100.00;95124.84;5052737;28;20106;-59
2021/08/25 08:35:04;;;;;;;5.93;3.97;;;;;;;13.85;100.00;95117.84;5051423;28;20555;-59
2021/08/25 08:37:30;;;;;;;5.38;3.55;;;;;;;13.88;100.00;95117.28;5040205;28;20044;-59
2021/08/25 08:39:57;;;;;;;5.35;3.90;;;;;;;13.91;100.00;95116.75;5032641;28;20469;-59
2021/08/25 08:42:38;;;;;;;3.88;3.47;;;;;;;13.87;100.00;95102.22;5032543;28;20215;-59
2021/08/25 08:45:08;;;;;;;4.68;3.90;;;;;;;13.95;100.00;95110.78;5039197;28;20029;-59
2021/08/25 08:47:52;;;;;;;5.53;4.40;;;;;;;14.03;100.00;95112.84;5052749;28;20024;-58
2021/08/25 08:50:24;;;;;;;4.60;4.05;;;;;;;14.02;100.00;95108.56;5051261;28;20075;-59
2021/08/25 08:52:58;;;;;;;5.90;4.13;;;;;;;14.14;100.00;95111.66;5052246;28;20107;-57
2021/08/25 08:55:24;;;;;;;5.82;4.20;;;;;;;14.20;100.00;95102.41;5052487;28;20389;-55
2021/08/25 08:57:53;;;;;;;8.18;4.53;;;;;;;14.25;100.00;95094.28;5051010;28;20028;-58
2021/08/25 09:00:21;;;;;;;4.78;4.05;;;;;;;14.20;100.00;95094.31;5050291;28;20021;-56
2021/08/25 09:02:50;;;;;;;4.50;3.90;;;;;;;14.17;100.00;95084.94;5050928;28;20052;-59
2021/08/25 09:05:19;;;;;;;8.50;4.40;;;;;;;14.21;100.00;95095.94;5050980;28;20017;-60
2021/08/25 09:08:11;;;;;;;4.97;3.88;;;;;;;14.26;100.00;95098.59;5052747;28;20025;-59
2021/08/25 09:10:38;;;;;;;4.70;3.97;;;;;;;14.26;100.00;95095.09;5048418;28;20033;-59
2021/08/25 09:13:10;;;;;;;6.28;4.30;;;;;;;14.29;100.00;95087.22;5052347;28;20028;-59
2021/08/25 09:15:41;;;;;;;7.10;4.38;;;;;;;14.38;100.00;95093.59;5050948;28;20029;-60
2021/08/25 09:18:17;;;;;;;5.00;4.43;;;;;;;14.43;100.00;95088.13;5050912;28;20024;-59
2021/08/25 09:20:46;;;;;;;5.57;3.85;;;;;;;14.51;100.00;95086.72;5051914;28;20047;-60
2021/08/25 09:23:15;;;;;;;5.60;4.18;;;;;;;14.59;100.00;95082.59;5051708;28;20032;-58
2021/08/25 09:25:42;;;;;;;5.15;4.38;;;;;;;14.64;100.00;95075.22;5045123;28;20619;-58
2021/08/25 09:28:09;;;;;;;5.15;4.03;;;;;;;14.76;100.00;95070.22;5031996;28;20036;-57
2021/08/25 09:31:06;;;;;;;7.63;4.38;;;;;;;14.75;100.00;95079.38;5042739;28;20026;-55
2021/08/25 09:33:39;;;;;;;4.43;3.97;;;;;;;14.90;100.00;95077.56;5034070;28;20108;-59
2021/08/25 09:36:11;;;;;;;5.10;3.67;;;;;;;14.86;100.00;95073.84;5043281;28;20314;-59
2021/08/25 09:38:38;;;;;;;4.90;4.40;;;;;;;14.86;100.00;95079.22;5047236;28;20017;-59
2021/08/25 09:41:07;;;;;;;4.82;4.25;;;;;;;14.75;100.00;95068.59;5035594;28;20033;-59
2021/08/25 09:43:45;;;;;;;5.07;3.97;;;;;;;14.72;100.00;95073.78;5035413;28;20061;-56
2021/08/25 09:46:17;;;;;;;5.78;4.25;;;;;;;14.78;100.00;95078.00;5035564;28;20117;-58
2021/08/25 09:48:48;;;;;;;4.57;3.67;;;;;;;14.79;100.00;95075.03;5034367;28;20057;-59
2021/08/25 09:51:18;;;;;;;5.20;4.05;;;;;;;14.80;100.00;95070.44;5032286;28;20025;-59
2021/08/25 09:53:49;;;;;;;5.18;4.30;;;;;;;14.89;100.00;95079.47;5047858;28;20045;-56
2021/08/25 09:56:32;;;;;;;6.57;4.30;;;;;;;14.91;100.00;95077.28;5036291;28;20083;-58
2021/08/25 09:59:01;;;;;;;4.10;3.60;;;;;;;14.94;100.00;95081.28;5054551;28;20024;-57
2021/08/25 10:01:32;;;;;;;4.43;3.67;;;;;;;15.03;100.00;95077.63;5037165;28;20025;-58
2021/08/25 10:03:57;;;;;;;4.65;4.10;;;;;;;15.17;100.00;95072.28;5037657;28;20033;-59
2021/08/25 10:06:26;;;;;;;5.47;4.00;;;;;;;15.25;100.00;95070.81;5047142;28;20048;-59
2021/08/25 10:08:54;;;;;;;5.88;3.85;;;;;;;15.27;100.00;95082.13;5048472;28;20033;-57
2021/08/25 10:11:32;;;;;;;5.90;3.97;;;;;;;15.32;100.00;95077.47;5034541;28;20483;-59
2021/08/25 10:13:59;;;;;;;4.40;3.72;;;;;;;15.33;100.00;95080.97;5037007;28;20025;-56
2021/08/25 10:16:48;;;;;;;4.30;3.38;;;;;;;15.35;100.00;95089.56;5036269;28;20100;-59
2021/08/25 10:19:27;;;;;;;5.82;3.63;;;;;;;15.37;100.00;95081.97;5035162;28;20021;-56
2021/08/25 10:21:57;;;;;;;3.95;3.45;;;;;;;15.43;100.00;95090.78;5065493;28;20033;-59
2021/08/25 10:24:23;;;;;;;4.30;3.65;;;;;;;15.35;100.00;95087.66;5038548;28;20024;-59
2021/08/25 10:26:57;;;;;;;5.05;3.65;;;;;;;15.44;100.00;95092.41;5034961;28;20052;-58
2021/08/25 10:29:24;;;;;;;6.45;3.53;;;;;;;15.56;100.00;95088.13;5053577;28;20071;-58
2021/08/25 10:31:50;;;;;;;4.05;3.65;;;;;;;15.66;100.00;95079.09;5028188;28;20557;-58
2021/08/25 10:34:17;;;;;;;4.35;3.85;;;;;;;15.57;100.00;95092.44;5050270;28;20025;-59
2021/08/25 10:36:43;;;;;;;4.63;3.58;;;;;;;15.65;100.00;95077.50;5021194;28;20495;-59
2021/08/25 10:39:31;;;;;;;4.40;3.90;;;;;;;15.60;100.00;95077.56;5012409;28;20036;-59
2021/08/25 10:42:03;;;;;;;8.45;3.88;;;;;;;15.49;100.00;95076.91;5012413;28;20026;-52
2021/08/25 10:44:40;;;;;;;4.18;3.55;;;;;;;15.41;100.00;95079.47;5043224;28;20021;-53
2021/08/25 10:47:10;;;;;;;5.53;3.80;;;;;;;15.34;100.00;95079.88;5043801;28;20048;-58
2021/08/25 10:49:38;;;;;;;4.60;3.50;;;;;;;15.27;100.00;95077.53;5044794;28;20472;-58
2021/08/25 10:52:29;;;;;;;4.28;3.88;;;;;;;15.26;100.00;95067.84;5045868;28;20460;-59
2021/08/25 10:54:57;;;;;;;4.13;3.72;;;;;;;15.27;100.00;95065.94;5035411;28;20053;-56
2021/08/25 10:57:24;;;;;;;3.72;3.22;;;;;;;15.33;100.00;95065.56;5042071;28;20025;-54
2021/08/25 11:00:08;;;;;;;5.60;3.65;;;;;;;15.44;100.00;95068.09;5038198;28;20037;-55
2021/08/25 11:02:40;;;;;;;4.13;3.50;;;;;;;15.50;100.00;95070.41;5040933;28;20033;-57
2021/08/25 11:05:06;;;;;;;4.00;3.60;;;;;;;15.55;100.00;95064.94;5014592;28;20049;-53
2021/08/25 11:07:40;;;;;;;4.75;3.42;;;;;;;15.59;100.00;95076.72;5038071;28;20385;-50
2021/08/25 11:10:06;;;;;;;4.00;3.60;;;;;;;15.56;100.00;95073.84;5036611;28;20060;-50
2021/08/25 11:12:32;;;;;;;3.83;3.53;;;;;;;15.60;100.00;95075.66;5035361;28;20056;-57
2021/08/25 11:15:00;;;;;;;3.83;3.35;;;;;;;15.67;100.00;95069.09;5034280;28;20087;-54
2021/08/25 11:17:28;;;;;;;3.72;3.35;;;;;;;15.66;100.00;95068.28;5008572;28;20060;-56
2021/08/25 11:19:55;;;;;;;6.25;3.50;;;;;;;15.69;100.00;95078.50;5034073;28;20032;-57
2021/08/25 11:22:35;;;;;;;4.03;3.63;;;;;;;15.71;100.00;95081.69;5033046;28;20111;-54
2021/08/25 11:25:12;;;;;;;3.53;3.22;;;;;;;15.82;100.00;95082.31;5032990;28;20021;-55
2021/08/25 11:27:44;;;;;;;5.10;3.70;;;;;;;15.83;100.00;95086.59;5032994;28;20053;-53
2021/08/25 11:30:40;;;;;;;4.03;3.55;;;;;;;15.87;100.00;95087.63;5047584;28;20500;-53
2021/08/25 11:33:10;;;;;;;3.45;3.15;;;;;;;15.96;100.00;95080.44;5033699;28;20045;-52
2021/08/25 11:35:44;;;;;;;4.72;3.78;;;;;;;16.07;100.00;95094.56;5037833;28;20078;-55
2021/08/25 11:38:18;;;;;;;5.35;3.75;;;;;;;16.07;100.00;95092.66;5037335;28;20503;-55